createdAt,value
2023-10-10T11:34:11.025Z,101717.75
2023-10-10T11:37:24.855Z,101724.97
2023-10-10T11:40:31.585Z,101721.38
2023-10-10T11:43:18.884Z,101718.09
2023-10-10T11:46:04.512Z,101711.22
2023-10-10T11:48:49.637Z,101721.75
2023-10-10T11:51:38.929Z,101699.09
2023-10-10T11:54:26.651Z,101702.63
2023-10-10T11:57:16.865Z,101700.84
2023-10-10T12:00:26.481Z,101692.16
2023-10-10T12:03:13.799Z,101711.34
2023-10-10T12:06:01.045Z,101686.94
2023-10-10T12:08:50.223Z,101680.84
2023-10-10T12:11:40.163Z,101679.94
2023-10-10T12:14:30.429Z,101677.28
2023-10-10T12:17:15.891Z,101679.91
2023-10-10T12:20:01.261Z,101684.22
2023-10-10T12:22:46.580Z,101676.38
2023-10-10T12:25:31.971Z,101679.03
2023-10-10T12:28:19.599Z,101679.03
2023-10-10T12:31:05.086Z,101681.63
2023-10-10T12:33:51.321Z,101690.38
2023-10-10T12:36:37.943Z,101695.59
2023-10-10T12:39:28.742Z,101691.31
2023-10-10T12:42:13.894Z,101694.78
2023-10-10T12:45:02.524Z,101689.53
2023-10-10T12:47:49.828Z,101692.16
2023-10-10T12:50:36.017Z,101686.94
2023-10-10T12:53:22.057Z,101688.72
2023-10-10T12:56:12.469Z,101685.22
2023-10-10T12:59:23.713Z,101680.88
2023-10-10T13:02:16.815Z,101669.53
2023-10-10T13:05:02.966Z,101683.47
2023-10-10T13:07:48.103Z,101680.00
2023-10-10T13:10:38.704Z,101667.78
2023-10-10T13:13:44.360Z,101676.50
2023-10-10T13:16:49.470Z,101676.47
2023-10-10T13:19:34.480Z,101670.41
2023-10-10T13:22:22.844Z,101667.78
2023-10-10T13:25:11.535Z,101663.41
2023-10-10T13:27:56.855Z,101640.78
2023-10-10T13:30:47.846Z,101666.00
2023-10-10T13:33:33.167Z,101655.56
2023-10-10T13:36:18.171Z,101661.63
2023-10-10T13:39:08.554Z,101673.84
2023-10-10T13:41:56.304Z,101652.94
2023-10-10T13:44:44.243Z,101640.75
2023-10-10T13:47:30.409Z,101656.44
2023-10-10T13:50:42.810Z,101642.50
2023-10-10T13:53:28.363Z,101635.50
2023-10-10T13:56:18.534Z,101637.25
2023-10-10T13:59:04.499Z,101633.75
2023-10-10T14:01:53.506Z,101635.47
2023-10-10T14:04:49.536Z,101630.25
2023-10-10T14:07:35.261Z,101628.53
2023-10-10T14:10:22.293Z,101638.09
2023-10-10T14:13:34.556Z,101630.25
2023-10-10T14:16:21.536Z,101641.56
2023-10-10T14:19:06.938Z,101638.94
2023-10-10T14:21:56.614Z,101642.44
2023-10-10T14:24:43.330Z,101639.78
2023-10-10T14:27:29.170Z,101620.63
2023-10-10T14:30:24.825Z,101621.47
2023-10-10T14:33:10.875Z,101625.84
2023-10-10T14:35:57.649Z,101618.88
2023-10-10T14:38:46.225Z,101621.50
2023-10-10T14:41:31.689Z,101606.66
2023-10-10T14:44:16.911Z,101610.16
2023-10-10T14:47:06.049Z,101606.66
2023-10-10T14:49:57.313Z,101594.47
2023-10-10T14:52:49.007Z,101593.59
2023-10-10T14:55:41.089Z,101593.59
2023-10-10T14:58:26.696Z,101598.00
2023-10-10T15:01:18.701Z,101597.09
2023-10-10T15:04:06.229Z,101592.75
2023-10-10T15:06:55.944Z,101585.78
2023-10-10T15:09:41.294Z,101594.53
2023-10-10T15:12:26.514Z,101585.81
2023-10-10T15:15:12.033Z,101587.56
2023-10-10T15:17:57.638Z,101589.38
2023-10-10T15:20:47.604Z,101598.06
2023-10-10T15:23:32.675Z,101588.50
2023-10-10T15:26:21.862Z,101578.09
2023-10-10T15:29:12.219Z,101574.63
2023-10-10T15:32:00.820Z,101559.81
2023-10-10T15:34:46.178Z,101558.09
2023-10-10T15:37:32.450Z,101582.47
2023-10-10T15:40:23.663Z,101579.84
2023-10-10T15:43:29.869Z,101576.38
2023-10-10T15:46:18.666Z,101572.00
2023-10-10T15:49:17.834Z,101572.03
2023-10-10T15:52:16.131Z,101575.50
2023-10-10T15:55:06.397Z,101572.91
2023-10-10T15:57:55.281Z,101555.47
2023-10-10T16:00:40.758Z,101572.00
2023-10-10T16:03:26.033Z,101580.66
2023-10-10T16:06:11.510Z,101565.91
2023-10-10T16:08:59.631Z,101575.44
2023-10-10T16:11:46.652Z,101562.38
2023-10-10T16:14:38.172Z,101571.94
2023-10-10T16:17:23.742Z,101578.91
2023-10-10T16:20:09.488Z,101584.97
2023-10-10T16:22:54.822Z,101584.09
2023-10-10T16:25:40.232Z,101580.59
2023-10-10T16:28:25.804Z,101579.66
2023-10-10T16:31:16.698Z,101597.06
2023-10-10T16:34:03.558Z,101602.25
2023-10-10T16:36:49.790Z,101595.31
2023-10-10T16:39:35.089Z,101604.81
2023-10-10T16:42:20.915Z,101608.25
2023-10-10T16:45:11.631Z,101603.84
2023-10-10T16:47:58.035Z,101609.06
2023-10-10T16:50:43.770Z,101607.28
2023-10-10T16:53:32.352Z,101606.41
2023-10-10T16:56:22.313Z,101597.66
2023-10-10T16:59:07.653Z,101601.97
2023-10-10T17:01:53.127Z,101588.88
2023-10-10T17:04:38.557Z,101594.94
2023-10-10T17:07:27.385Z,101603.59
2023-10-10T17:10:15.441Z,101612.28
2023-10-10T17:13:01.670Z,101607.91
2023-10-10T17:15:48.509Z,101601.81
2023-10-10T17:18:34.005Z,101603.53
2023-10-10T17:21:19.799Z,101580.84
2023-10-10T17:24:05.819Z,101594.78
2023-10-10T17:26:51.480Z,101591.28
2023-10-10T17:29:37.286Z,101602.59
2023-10-10T17:32:24.012Z,101575.59
2023-10-10T17:35:10.828Z,101569.47
2023-10-10T17:37:55.907Z,101576.44
2023-10-10T17:40:41.366Z,101565.13
2023-10-10T17:43:27.207Z,101559.00
2023-10-10T17:46:16.728Z,101559.00
2023-10-10T17:49:02.030Z,101563.28
2023-10-10T17:51:47.605Z,101559.84
2023-10-10T17:54:32.987Z,101560.66
2023-10-10T17:57:23.054Z,101571.03
2023-10-10T18:00:15.058Z,101576.22
2023-10-10T18:03:09.080Z,101563.19
2023-10-10T18:05:55.683Z,101556.22
2023-10-10T18:08:41.074Z,101545.75
2023-10-10T18:11:27.525Z,101557.03
2023-10-10T18:14:13.088Z,101577.00
2023-10-10T18:16:58.381Z,101569.13
2023-10-10T18:19:43.924Z,101556.97
2023-10-10T18:22:32.948Z,101562.16
2023-10-10T18:25:19.709Z,101560.44
2023-10-10T18:28:09.407Z,101556.03
2023-10-10T18:30:54.615Z,101547.28
2023-10-10T18:33:40.304Z,101546.44
2023-10-10T18:36:25.940Z,101547.19
2023-10-10T18:39:15.264Z,101554.19
2023-10-10T18:42:01.899Z,101558.50
2023-10-10T18:44:47.167Z,101550.72
2023-10-10T18:47:32.813Z,101543.72
2023-10-10T18:50:21.733Z,101537.56
2023-10-10T18:53:07.378Z,101522.72
2023-10-10T18:55:56.008Z,101550.50
2023-10-10T18:58:41.196Z,101536.56
2023-10-10T19:01:26.552Z,101538.41
2023-10-10T19:04:14.662Z,101532.28
2023-10-10T19:07:00.011Z,101537.47
2023-10-10T19:09:45.554Z,101518.34
2023-10-10T19:12:30.999Z,101527.03
2023-10-10T19:15:17.197Z,101527.88
2023-10-10T19:18:05.083Z,101533.97
2023-10-10T19:20:50.524Z,101514.75
2023-10-10T19:23:37.823Z,101541.72
2023-10-10T19:26:26.836Z,101534.78
2023-10-10T19:29:12.654Z,101542.59
2023-10-10T19:32:00.504Z,101524.28
2023-10-10T19:34:46.180Z,101535.66
2023-10-10T19:37:33.347Z,101540.84
2023-10-10T19:40:22.430Z,101506.84
2023-10-10T19:43:07.986Z,101518.22
2023-10-10T19:45:53.421Z,101525.16
2023-10-10T19:48:41.962Z,101527.75
2023-10-10T19:51:27.723Z,101508.63
2023-10-10T19:54:14.219Z,101519.88
2023-10-10T19:56:59.708Z,101525.94
2023-10-10T19:59:46.339Z,101532.00
2023-10-10T20:02:31.854Z,101527.63
2023-10-10T20:05:21.408Z,101510.19
2023-10-10T20:08:08.133Z,101521.50
2023-10-10T20:10:54.983Z,101491.91
2023-10-10T20:13:40.887Z,101516.28
2023-10-10T20:16:27.819Z,101505.88
2023-10-10T20:19:13.851Z,101492.81
2023-10-10T20:21:59.504Z,101495.47
2023-10-10T20:24:46.578Z,101498.91
2023-10-10T20:27:32.437Z,101478.84
2023-10-10T20:30:19.764Z,101501.53
2023-10-10T20:33:06.240Z,101489.34
2023-10-10T20:35:51.939Z,101494.59
2023-10-10T20:38:42.212Z,101479.78
2023-10-10T20:41:28.204Z,101471.97
2023-10-10T20:44:13.746Z,101472.81
2023-10-10T20:47:02.330Z,101451.88
2023-10-10T20:49:47.669Z,101463.22
2023-10-10T20:52:33.401Z,101464.06
2023-10-10T20:55:18.877Z,101468.47
2023-10-10T20:58:05.280Z,101474.50
2023-10-10T21:00:50.642Z,101471.97
2023-10-10T21:03:35.781Z,101467.63
2023-10-10T21:06:21.926Z,101470.19
2023-10-10T21:09:07.660Z,101472.81
2023-10-10T21:11:53.161Z,101466.75
2023-10-10T21:14:38.521Z,101465.03
2023-10-10T21:17:24.790Z,101471.09
2023-10-10T21:20:11.608Z,101467.66
2023-10-10T21:23:00.517Z,101457.28
2023-10-10T21:25:46.127Z,101445.09
2023-10-10T21:28:31.414Z,101451.19
2023-10-10T21:31:16.711Z,101444.25
2023-10-10T21:34:02.200Z,101428.63
2023-10-10T21:36:47.872Z,101431.34
2023-10-10T21:39:33.138Z,101426.16
2023-10-10T21:42:20.610Z,101422.78
2023-10-10T21:45:07.877Z,101415.03
2023-10-10T21:47:58.481Z,101402.91
2023-10-10T21:50:43.809Z,101394.22
2023-10-10T21:53:29.130Z,101396.91
2023-10-10T21:56:14.520Z,101393.41
2023-10-10T21:59:01.252Z,101385.63
2023-10-10T22:01:54.073Z,101386.53
2023-10-10T22:04:39.584Z,101373.50
2023-10-10T22:16:44.319Z,101361.50
2023-10-10T22:19:29.643Z,101350.22
2023-10-10T22:22:15.066Z,101361.50
2023-10-10T22:25:01.220Z,101361.50
2023-10-10T22:27:48.116Z,101351.06
2023-10-10T22:30:38.574Z,101347.63
2023-10-10T22:33:24.478Z,101352.03
2023-10-10T22:36:16.249Z,101352.88
2023-10-10T22:39:07.989Z,101346.81
2023-10-10T22:41:53.625Z,101340.72
2023-10-10T22:44:39.276Z,101335.53
2023-10-10T22:47:26.005Z,101335.56
2023-10-10T22:50:16.259Z,101334.72
2023-10-10T22:53:04.164Z,101336.47
2023-10-10T22:55:49.567Z,101324.34
2023-10-10T22:58:35.602Z,101326.94
2023-10-10T23:01:23.431Z,101323.47
2023-10-10T23:04:09.224Z,101316.56
2023-10-10T23:06:54.535Z,101316.56
2023-10-10T23:09:42.798Z,101317.44
2023-10-10T23:12:28.584Z,101313.97
2023-10-10T23:15:14.181Z,101302.72
2023-10-10T23:18:01.495Z,101307.06
2023-10-10T23:20:47.726Z,101307.94
2023-10-10T23:23:33.493Z,101302.84
2023-10-10T23:26:20.788Z,101309.78
2023-10-10T23:29:07.988Z,101301.09
2023-10-10T23:31:53.470Z,101295.03
2023-10-10T23:34:38.918Z,101302.88
2023-10-10T23:37:24.923Z,101292.47
2023-10-10T23:40:18.191Z,101279.50
2023-10-10T23:43:04.692Z,101283.84
2023-10-10T23:45:57.948Z,101284.72
2023-10-10T23:48:44.090Z,101262.97
2023-10-10T23:51:29.568Z,101276.91
2023-10-10T23:54:15.659Z,101269.97
2023-10-10T23:57:05.176Z,101268.22
2023-10-10T23:59:50.910Z,101258.72
